createdAt,value
2022-12-13T00:01:57.572Z,25.73
2022-12-13T00:07:04.448Z,28.62
2022-12-13T00:12:11.447Z,27.70
2022-12-13T00:17:17.965Z,28.17
2022-12-13T00:22:26.831Z,25.87
2022-12-13T00:27:34.335Z,26.57
2022-12-13T00:32:41.088Z,26.40
2022-12-13T00:37:47.663Z,26.97
2022-12-13T00:42:54.543Z,22.90
2022-12-13T00:48:01.566Z,23.57
2022-12-13T00:53:07.968Z,23.45
2022-12-13T00:58:14.505Z,24.32
2022-12-13T01:03:21.127Z,24.18
2022-12-13T01:08:29.538Z,18.17
2022-12-13T01:13:36.447Z,24.70
2022-12-13T01:18:43.515Z,24.70
2022-12-13T01:23:50.316Z,23.40
2022-12-13T01:28:56.975Z,25.27
2022-12-13T01:34:05.161Z,26.27
2022-12-13T01:39:14.816Z,27.17
2022-12-13T01:45:03.330Z,25.10
2022-12-13T01:50:20.274Z,25.50
2022-12-13T01:55:31.636Z,23.15
2022-12-13T02:00:41.024Z,24.53
2022-12-13T02:05:54.998Z,25.87
2022-12-13T02:11:02.653Z,24.87
2022-12-13T02:16:38.032Z,24.50
2022-12-13T02:22:26.308Z,25.73
2022-12-13T02:27:46.962Z,25.08
2022-12-13T02:33:28.093Z,25.83
2022-12-13T02:38:39.502Z,26.77
2022-12-13T02:44:02.102Z,27.00
2022-12-13T02:49:11.151Z,27.27
2022-12-13T02:54:17.868Z,26.47
2022-12-13T02:59:26.391Z,25.55
2022-12-13T03:05:16.445Z,25.83
2022-12-13T03:10:30.167Z,25.55
2022-12-13T03:15:46.186Z,26.47
2022-12-13T03:20:56.054Z,25.17
2022-12-13T03:26:12.875Z,25.68
2022-12-13T03:31:20.268Z,24.07
2022-12-13T03:36:28.084Z,24.40
2022-12-13T03:41:36.549Z,24.10
2022-12-13T03:46:43.153Z,23.30
2022-12-13T03:51:49.820Z,23.90
2022-12-13T03:56:56.334Z,24.60
2022-12-13T04:07:22.596Z,23.70
2022-12-13T04:12:34.639Z,25.10
2022-12-13T04:17:40.945Z,25.13
2022-12-13T04:27:53.786Z,24.15
2022-12-13T04:33:00.303Z,24.70
2022-12-13T04:38:06.737Z,24.40
2022-12-13T04:43:13.358Z,25.35
2022-12-13T04:48:30.718Z,24.35
2022-12-13T04:53:28.768Z,23.93
2022-12-13T04:58:34.988Z,24.05
2022-12-13T05:03:41.605Z,23.52
2022-12-13T05:08:48.392Z,23.10
2022-12-13T05:13:54.612Z,23.83
2022-12-13T05:19:01.220Z,23.42
2022-12-13T05:24:08.497Z,23.02
2022-12-13T05:29:14.831Z,23.70
2022-12-13T05:34:21.905Z,23.30
2022-12-13T05:39:30.085Z,17.92
2022-12-13T05:44:36.242Z,24.00
2022-12-13T05:49:42.966Z,25.13
2022-12-13T05:54:50.148Z,23.42
2022-12-13T05:59:56.469Z,23.67
2022-12-13T06:05:03.602Z,23.42
2022-12-13T06:10:11.189Z,24.87
2022-12-13T06:15:21.714Z,23.65
2022-12-13T06:20:26.083Z,23.32
2022-12-13T06:25:34.287Z,23.87
2022-12-13T06:30:42.711Z,27.32
2022-12-13T06:35:49.310Z,25.10
2022-12-13T06:40:56.554Z,25.27
2022-12-13T06:46:07.720Z,25.07
2022-12-13T06:51:22.765Z,25.18
2022-12-13T06:56:26.162Z,24.43
2022-12-13T07:01:37.088Z,25.30
2022-12-13T07:06:41.355Z,24.03
2022-12-13T07:17:02.891Z,24.25
2022-12-13T07:22:02.995Z,25.80
2022-12-13T07:27:09.553Z,24.90
2022-12-13T07:32:17.934Z,25.13
2022-12-13T07:37:29.927Z,24.37
2022-12-13T07:42:35.728Z,25.37
2022-12-13T07:47:42.915Z,25.00
2022-12-13T07:52:51.807Z,24.47
2022-12-13T07:57:59.542Z,26.83
2022-12-13T08:03:11.118Z,26.60
2022-12-13T08:08:19.879Z,26.40
2022-12-13T08:13:26.660Z,25.75
2022-12-13T08:18:33.775Z,25.32
2022-12-13T08:28:46.299Z,24.67
2022-12-13T08:33:52.665Z,24.95
2022-12-13T08:39:01.466Z,24.53
2022-12-13T08:44:08.079Z,24.30
2022-12-13T08:49:15.161Z,25.10
2022-12-13T08:54:31.553Z,26.42
2022-12-13T08:59:30.128Z,26.75
2022-12-13T09:04:36.742Z,28.00
2022-12-13T09:09:43.114Z,26.52
2022-12-13T09:14:49.650Z,28.87
2022-12-13T09:19:57.912Z,23.10
2022-12-13T09:25:06.716Z,30.83
2022-12-13T09:30:15.649Z,29.80
2022-12-13T09:35:23.191Z,30.90
2022-12-13T09:40:31.400Z,29.77
2022-12-13T09:45:42.769Z,30.83
2022-12-13T09:50:58.538Z,29.80
2022-12-13T09:56:10.443Z,31.97
2022-12-13T10:01:07.728Z,30.93
2022-12-13T10:06:22.698Z,30.40
2022-12-13T10:11:32.571Z,30.55
2022-12-13T10:16:44.184Z,30.43
2022-12-13T10:21:51.618Z,30.97
2022-12-13T10:27:02.556Z,31.77
2022-12-13T10:32:14.922Z,29.97
2022-12-13T10:37:34.391Z,31.62
2022-12-13T10:42:40.910Z,30.70
2022-12-13T10:47:48.074Z,30.40
2022-12-13T10:52:54.696Z,31.33
2022-12-13T10:58:12.067Z,31.50
2022-12-13T11:03:35.923Z,31.00
2022-12-13T11:08:42.567Z,31.17
2022-12-13T11:13:55.507Z,32.25
2022-12-13T11:19:09.166Z,33.10
2022-12-13T11:24:25.715Z,32.20
2022-12-13T11:29:59.169Z,30.77
2022-12-13T11:35:17.920Z,29.87
2022-12-13T11:40:32.189Z,29.72
2022-12-13T11:45:53.404Z,29.73
2022-12-13T11:51:01.628Z,29.43
2022-12-13T11:56:30.922Z,29.60
2022-12-13T12:01:52.093Z,29.13
2022-12-13T12:07:33.782Z,30.40
2022-12-13T12:12:37.418Z,30.63
2022-12-13T12:17:43.795Z,30.67
2022-12-13T12:23:03.201Z,21.80
2022-12-13T12:28:54.657Z,29.97
2022-12-13T12:34:27.194Z,28.13
2022-12-13T12:39:52.604Z,29.05
2022-12-13T12:45:06.213Z,29.47
2022-12-13T12:50:42.955Z,28.33
2022-12-13T12:56:23.412Z,29.57
2022-12-13T13:01:43.784Z,29.67
2022-12-13T13:07:01.362Z,30.60
2022-12-13T13:12:30.025Z,29.90
2022-12-13T13:17:29.036Z,30.27
2022-12-13T13:22:44.321Z,30.17
2022-12-13T13:27:50.972Z,30.67
2022-12-13T13:32:59.155Z,31.47
2022-12-13T13:38:30.433Z,31.70
2022-12-13T13:43:36.877Z,30.63
2022-12-13T13:49:02.768Z,30.80
2022-12-13T13:54:31.410Z,30.17
2022-12-13T14:00:16.564Z,28.10
2022-12-13T14:05:58.659Z,28.90
2022-12-13T14:11:51.156Z,28.30
2022-12-13T14:17:44.271Z,28.30
2022-12-13T14:22:57.978Z,27.60
2022-12-13T14:28:30.032Z,28.33
2022-12-13T14:33:36.434Z,28.53
2022-12-13T14:38:42.958Z,28.60
2022-12-13T14:43:50.300Z,22.32
2022-12-13T14:48:57.554Z,28.23
2022-12-13T14:54:07.094Z,27.73
2022-12-13T14:59:14.746Z,27.87
2022-12-13T15:04:31.360Z,29.23
2022-12-13T15:14:54.003Z,32.03
2022-12-13T15:20:02.421Z,31.13
2022-12-13T15:25:10.652Z,28.77
2022-12-13T15:30:18.385Z,28.07
2022-12-13T15:35:28.663Z,23.50
2022-12-13T15:40:36.390Z,23.00
2022-12-13T15:45:47.247Z,22.87
2022-12-13T15:51:14.531Z,21.93
2022-12-13T15:56:43.464Z,22.97
2022-12-13T16:01:57.986Z,21.47
2022-12-13T16:07:02.635Z,22.27
2022-12-13T16:12:11.473Z,23.20
2022-12-13T16:17:30.623Z,23.07
2022-12-13T16:22:37.355Z,25.67
2022-12-13T16:27:44.264Z,27.83
2022-12-13T16:38:00.293Z,29.17
2022-12-13T16:43:11.659Z,38.58
2022-12-13T16:48:18.804Z,27.97
2022-12-13T16:53:26.384Z,63.87
2022-12-13T16:58:33.920Z,50.15
2022-12-13T17:03:40.973Z,36.20
2022-12-13T17:08:47.849Z,30.13
2022-12-13T17:13:55.069Z,29.10
2022-12-13T17:19:02.252Z,23.90
2022-12-13T17:24:09.862Z,21.13
2022-12-13T17:29:17.982Z,23.87
2022-12-13T17:34:24.304Z,26.52
2022-12-13T17:44:36.958Z,22.27
2022-12-13T17:49:43.410Z,27.00
2022-12-13T17:54:50.053Z,23.07
2022-12-13T17:59:57.247Z,22.20
2022-12-13T18:05:05.672Z,18.43
2022-12-13T18:10:13.012Z,34.73
2022-12-13T18:15:19.628Z,24.63
2022-12-13T18:20:27.117Z,37.73
2022-12-13T18:25:34.011Z,34.13
2022-12-13T18:30:40.903Z,47.70
2022-12-13T18:35:47.667Z,36.53
2022-12-13T18:40:56.043Z,55.17
2022-12-13T18:46:06.041Z,44.43
2022-12-13T18:51:13.022Z,37.90
2022-12-13T18:56:21.938Z,51.88
2022-12-13T19:01:28.973Z,46.88
2022-12-13T19:06:36.155Z,38.05
2022-12-13T19:11:45.112Z,32.00
2022-12-13T19:22:00.077Z,32.13
2022-12-13T19:27:06.685Z,32.80
2022-12-13T19:32:13.810Z,19.63
2022-12-13T19:37:21.402Z,27.77
2022-12-13T19:42:28.629Z,37.13
2022-12-13T19:47:35.800Z,34.90
2022-12-13T19:52:42.405Z,14.67
2022-12-13T19:57:49.424Z,31.20
2022-12-13T20:02:57.751Z,26.17
2022-12-13T20:08:04.234Z,29.77
2022-12-13T20:13:11.588Z,39.27
2022-12-13T20:18:19.461Z,32.73
2022-12-13T20:23:27.018Z,15.10
2022-12-13T20:28:34.562Z,21.83
2022-12-13T20:33:44.912Z,30.43
2022-12-13T20:38:53.800Z,48.37
2022-12-13T20:44:02.381Z,14.43
2022-12-13T20:49:10.830Z,13.87
2022-12-13T20:54:19.765Z,10.43
2022-12-13T20:59:26.028Z,9.80
2022-12-13T21:09:39.106Z,9.00
2022-12-13T21:14:47.767Z,11.33
2022-12-13T21:19:57.088Z,13.07
2022-12-13T21:25:04.027Z,18.25
2022-12-13T21:30:12.080Z,16.53
2022-12-13T21:35:19.900Z,10.57
2022-12-13T21:40:27.988Z,31.60
2022-12-13T21:45:35.546Z,13.17
2022-12-13T21:50:41.948Z,13.47
2022-12-13T21:55:48.201Z,9.40
2022-12-13T22:00:55.019Z,10.40
2022-12-13T22:06:03.046Z,10.53
2022-12-13T22:11:21.108Z,12.40
2022-12-13T22:16:23.780Z,8.40
2022-12-13T22:21:31.329Z,10.33
2022-12-13T22:26:39.466Z,11.57
2022-12-13T22:31:49.006Z,9.63
2022-12-13T22:36:55.277Z,7.07
2022-12-13T22:42:02.130Z,8.57
2022-12-13T22:47:08.632Z,13.77
2022-12-13T22:52:14.794Z,8.23
2022-12-13T22:57:21.130Z,10.27
2022-12-13T23:02:27.748Z,9.47
2022-12-13T23:07:36.198Z,8.47
2022-12-13T23:12:59.868Z,11.13
2022-12-13T23:18:06.836Z,10.87
2022-12-13T23:23:13.268Z,8.00
2022-12-13T23:33:25.630Z,9.65
2022-12-13T23:38:33.320Z,14.58
2022-12-13T23:43:41.743Z,11.77
2022-12-13T23:48:49.232Z,8.03
2022-12-13T23:53:56.607Z,8.83
2022-12-13T23:59:02.983Z,8.48
